Terminal Aerodrome Forecast
Issued by NWS Shreveport, LA

Home | Current Version | Previous Version | Text Only | Print | Product List | Glossary On
Versions: 1 2 3 4 5 6 7 8 9 10 11 12 13 14 15 16
000
FTUS44 KSHV 271748
TAFMLU
TAF
KMLU 271748Z 2718/2818 22012G18KT P6SM VCSH OVC040
     FM280000 VRB04KT P6SM SCT050
     FM280800 VRB03KT 5SM BR BKN025
      TEMPO 2810/2814 2SM BR OVC015
     FM281600 19005KT P6SM SCT030=

USA.gov is the U.S. government's official web portal to all federal, state and local government web resources and services.